createdAt,value
2019-05-22T05:11:48.321Z,92.42
2019-05-22T05:21:48.277Z,93.28
2019-05-22T05:31:48.261Z,93.46
2019-05-22T05:41:47.802Z,94.26
2019-05-22T05:51:49.920Z,94.11
2019-05-22T06:01:46.710Z,92.53
2019-05-22T06:11:50.164Z,94.34
2019-05-22T06:21:48.391Z,94.55
2019-05-22T06:31:48.456Z,94.92
2019-05-22T06:41:48.635Z,93.10
2019-05-22T06:51:46.526Z,91.48
2019-05-22T07:01:49.944Z,93.63
2019-05-22T07:11:48.230Z,97.70
2019-05-22T07:21:48.286Z,98.58
2019-05-22T07:31:48.676Z,99.02
2019-05-22T07:41:50.184Z,99.38
2019-05-22T07:51:57.071Z,99.80
2019-05-22T08:01:48.122Z,97.88
2019-05-22T08:11:48.878Z,97.82
2019-05-22T08:22:05.794Z,97.05
2019-05-22T08:31:48.362Z,95.55
2019-05-22T08:41:48.235Z,93.35
2019-05-22T08:51:48.306Z,94.06
2019-05-22T09:01:48.076Z,95.52
2019-05-22T09:11:51.107Z,94.57
2019-05-22T09:21:48.344Z,93.23
2019-05-22T09:31:50.620Z,93.36
2019-05-22T09:41:49.204Z,94.09
2019-05-22T09:51:50.041Z,91.57
2019-05-22T10:01:47.963Z,88.60
2019-05-22T10:11:51.669Z,90.29
2019-05-22T10:21:48.415Z,89.62
2019-05-22T10:31:48.281Z,89.10
2019-05-22T10:41:50.079Z,89.04
2019-05-22T10:51:47.429Z,90.18
2019-05-22T11:01:47.466Z,89.43
2019-05-22T11:11:49.498Z,89.92
2019-05-22T11:21:51.605Z,84.82
2019-05-22T11:31:51.668Z,81.94
2019-05-22T11:41:47.770Z,80.86
2019-05-22T11:51:47.901Z,81.13
2019-05-22T12:01:48.096Z,77.81
2019-05-22T12:11:47.431Z,78.02
2019-05-22T12:21:47.706Z,78.08
2019-05-22T12:31:47.459Z,77.48
2019-05-22T12:41:47.571Z,74.82
2019-05-22T13:15:08.891Z,74.11
2019-05-22T13:24:59.528Z,69.66
2019-05-22T13:35:00.512Z,71.67
2019-05-22T13:44:59.166Z,69.19
2019-05-22T13:55:03.837Z,68.40
2019-05-22T14:04:56.825Z,69.44
2019-05-22T14:14:57.201Z,68.61
2019-05-22T14:24:56.973Z,65.63
2019-05-22T14:34:57.310Z,66.32
2019-05-22T14:44:57.315Z,66.52
2019-05-22T14:54:58.916Z,63.49
2019-05-22T15:04:59.196Z,58.56
2019-05-22T15:15:00.384Z,62.71
2019-05-22T15:24:59.348Z,63.98
2019-05-22T15:34:57.445Z,60.55
2019-05-22T15:44:57.333Z,58.74
2019-05-22T15:54:57.226Z,55.72
2019-05-22T16:04:59.014Z,56.16
2019-05-22T16:14:59.129Z,55.02
2019-05-22T16:24:59.708Z,53.75
2019-05-22T16:34:57.315Z,56.25
2019-05-22T16:44:57.255Z,54.83
2019-05-22T16:54:59.173Z,54.92
2019-05-22T17:04:57.405Z,53.15
2019-05-22T17:14:57.250Z,55.99
2019-05-22T17:24:57.331Z,56.49
2019-05-22T17:34:59.050Z,60.13
2019-05-22T17:44:58.705Z,60.29
2019-05-22T17:54:57.437Z,59.05
2019-05-22T18:04:58.641Z,58.93
2019-05-22T18:15:00.644Z,60.12
2019-05-22T18:24:56.411Z,61.98
2019-05-22T18:34:56.279Z,61.80
2019-05-22T18:44:58.081Z,63.49
2019-05-22T18:55:02.241Z,64.47
2019-05-22T19:05:00.480Z,73.92
